Airfield :
LOGIN :

Register | Disclaimer

   EN    FR    IT 

 










Legend :    VFR   Marginal VFR   IFR   Intensive IFR   Very Intensive IFR
Visi :
Ceiling :
>= 8 km
>= 3000ft
5 to 8 km
1000 to 3000 ft
1500m to 5 km
500 to 1000 ft
800 to 1500m
200 to 500 ft
< 800m
< 200 ft
Symbols :   Thunderstorms  Fog  Heavy snow  Heavy precipitations  Wind > 20 kt
SIGMETs :     Misc.  Thunderstorms  Icing  Turbulence  Mountain Waves  Volcanic Ashes






- Airport Elevation : 362 ft
- IATA code : WAW


EPWA - Warsaw Okecie

CURRENT METAR :
  • 271800Z 22002KT 6000 BKN026 02/02 Q1027 BECMG 4000 BR

EXPIRED METARs :
  • 271730Z VRB01KT 6000 -RA SCT027 02/02 Q1028 BECMG 4000 BR
  • 271700Z 21003KT 7000 FEW024 BKN028 03/02 Q1028 BECMG 4000 BR
  • 271630Z 20002KT 7000 FEW008 BKN023 03/02 Q1028 NOSIG
  • 271600Z 22002KT 8000 FEW009 BKN024 03/02 Q1028 NOSIG
  • 271530Z VRB01KT 8000 FEW010 BKN024 03/02 Q1028 NOSIG

TAF TAF EPWA
Valid from the 27 at 18:00 until the 28 at 18:00 UTC


271730Z 2718/2818 VRB02KT 7000 BKN025
BECMG 2718/2720 4000 BR BKN012
TEMPO 2718/2806 2000 -DZ BR BKN007
PROB30 2800/2805 0600 FG BKN002
BECMG 2806/2809 13010KT 9999 BKN015



MET'MAP, your aeronautical weather chart ! - Copyright ORBIFLY December 2007 - Disclaimer

ORBIFLY MET'MAP TEAM :

Programming & Development : Alexandra Zaïnal
Original concept : Baudouin d'Aumeries
Technical & hardware support : Manuel Goepfert
Assistance : Marc-Olivier Méhu




SOURCES & CREDITS :

   NOAA